To NAV CANADA Home Page Login to a new session Search on AWWS site Disclaimer Vers la page française équivalente Tips FAQ What's new on the site To the Forecasts and Observations / NOTAM section To "File a Flight Plan" website Publications and other links Update of the User's profile FIC Telephone Numbers My Weather Data Folder Route Weather Data Regional Weather Data Local Weather Data To the Forecasts and Observations / NOTAM section
Request Generated 10/19/2018 at 15:25:39 UTC . Weather information available at that time is displayed.

METAR/TAF

PENTICTON/BC    

METAR CYYF 191500Z 03005KT 15SM SCT190 OVC250 04/03 A3039 RMK AC4CI4 SLP305=
METAR CYYF 191400Z 02006KT 15SM SCT180 SCT250 02/01 A3038 RMK AC3CI1 SLP300=
METAR CYYF 191300Z 01004KT 15SM FEW250 03/02 A3036 RMK CI2 SLP293=

TAF CYYF 191238Z 1913/2001 35005KT P6SM SCT240
BECMG 1916/1918 18010KT
RMK NXT FCST BY 191900Z=
Your time UTC time
Weather data provided by Environment Canada and NAV CANADA